createdAt,value
2022-10-27T00:00:48.506Z,11.59
2022-10-27T00:03:31.878Z,11.56
2022-10-27T00:06:04.067Z,11.58
2022-10-27T00:08:30.638Z,11.56
2022-10-27T00:11:02.409Z,11.61
2022-10-27T00:13:29.924Z,11.66
2022-10-27T00:16:01.989Z,11.69
2022-10-27T00:18:28.973Z,11.73
2022-10-27T00:21:03.447Z,11.71
2022-10-27T00:23:30.925Z,11.76
2022-10-27T00:25:58.497Z,11.77
2022-10-27T00:31:05.703Z,11.83
2022-10-27T00:33:33.112Z,11.86
2022-10-27T00:36:11.770Z,11.89
2022-10-27T00:38:38.613Z,11.93
2022-10-27T00:41:06.809Z,11.96
2022-10-27T00:43:36.613Z,12.01
2022-10-27T00:46:28.164Z,12.06
2022-10-27T00:48:58.894Z,12.07
2022-10-27T00:51:25.955Z,12.10
2022-10-27T00:53:55.076Z,12.11
2022-10-27T00:56:22.685Z,12.09
2022-10-27T00:58:50.113Z,12.14
2022-10-27T01:01:17.170Z,12.13
2022-10-27T01:03:44.619Z,12.16
2022-10-27T01:06:12.528Z,12.18
2022-10-27T01:08:39.360Z,12.20
2022-10-27T01:11:05.972Z,12.18
2022-10-27T01:13:32.592Z,12.17
2022-10-27T01:16:12.702Z,12.19
2022-10-27T01:19:07.161Z,12.21
2022-10-27T01:21:58.237Z,12.24
2022-10-27T01:24:42.204Z,12.25
2022-10-27T01:27:25.586Z,12.24
2022-10-27T01:30:11.241Z,12.20
2022-10-27T01:32:47.731Z,12.15
2022-10-27T01:35:39.145Z,12.17
2022-10-27T01:38:18.462Z,12.19
2022-10-27T01:41:03.256Z,12.20
2022-10-27T01:43:31.318Z,12.18
2022-10-27T01:45:59.485Z,12.22
2022-10-27T01:48:26.633Z,12.21
2022-10-27T01:51:01.927Z,12.20
2022-10-27T01:53:31.415Z,12.17
2022-10-27T01:56:04.283Z,12.14
2022-10-27T01:59:11.543Z,12.12
2022-10-27T02:02:02.009Z,12.08
2022-10-27T02:04:34.389Z,12.07
2022-10-27T02:07:22.494Z,12.06
2022-10-27T02:10:03.452Z,12.03
2022-10-27T02:12:32.585Z,12.01
2022-10-27T02:15:03.480Z,12.01
2022-10-27T02:17:38.953Z,11.99
2022-10-27T02:20:13.068Z,11.92
2022-10-27T02:22:43.180Z,11.89
2022-10-27T02:25:10.067Z,11.87
2022-10-27T02:27:41.665Z,11.86
2022-10-27T02:30:08.700Z,11.86
2022-10-27T02:32:36.492Z,11.85
2022-10-27T02:35:05.139Z,11.81
2022-10-27T02:37:34.960Z,11.80
2022-10-27T02:40:01.958Z,11.76
2022-10-27T02:42:28.716Z,11.74
2022-10-27T02:44:55.330Z,11.67
2022-10-27T02:47:21.969Z,11.59
2022-10-27T02:49:48.745Z,11.56
2022-10-27T02:52:15.867Z,11.54
2022-10-27T02:54:47.454Z,11.57
2022-10-27T02:57:16.080Z,11.59
2022-10-27T02:59:42.927Z,11.57
2022-10-27T03:02:09.845Z,11.60
2022-10-27T03:04:36.584Z,11.61
2022-10-27T03:07:03.862Z,11.65
2022-10-27T03:09:30.471Z,11.69
2022-10-27T03:11:57.173Z,11.71
2022-10-27T03:14:23.941Z,11.66
2022-10-27T03:16:50.456Z,11.62
2022-10-27T03:19:17.005Z,11.64
2022-10-27T03:21:43.622Z,11.62
2022-10-27T03:24:10.731Z,11.58
2022-10-27T03:26:37.502Z,11.60
2022-10-27T03:29:07.407Z,11.62
2022-10-27T03:31:34.097Z,11.61
2022-10-27T03:34:00.815Z,11.61
2022-10-27T03:36:27.501Z,11.56
2022-10-27T03:38:54.277Z,11.54
2022-10-27T03:41:21.111Z,11.53
2022-10-27T03:43:47.627Z,11.51
2022-10-27T03:46:14.192Z,11.50
2022-10-27T03:48:40.755Z,11.51
2022-10-27T03:51:08.749Z,11.44
2022-10-27T03:53:35.626Z,11.41
2022-10-27T03:56:02.302Z,11.36
2022-10-27T03:58:28.886Z,11.32
2022-10-27T04:01:00.608Z,11.32
2022-10-27T04:03:27.324Z,11.31
2022-10-27T04:05:53.934Z,11.37
2022-10-27T04:08:20.476Z,11.43
2022-10-27T04:10:47.080Z,11.45
2022-10-27T04:13:13.564Z,11.48
2022-10-27T04:15:40.095Z,11.51
2022-10-27T04:18:07.187Z,11.55
2022-10-27T04:20:33.779Z,11.60
2022-10-27T04:23:00.332Z,11.64
2022-10-27T04:25:27.243Z,11.66
2022-10-27T04:28:07.744Z,11.68
2022-10-27T04:30:35.102Z,11.70
2022-10-27T04:33:02.476Z,11.69
2022-10-27T04:35:29.524Z,11.70
2022-10-27T04:37:56.916Z,11.71
2022-10-27T04:40:23.897Z,11.75
2022-10-27T04:42:50.642Z,11.77
2022-10-27T04:45:17.461Z,11.75
2022-10-27T04:47:44.572Z,11.73
2022-10-27T04:50:12.839Z,11.69
2022-10-27T04:52:43.518Z,11.62
2022-10-27T04:55:11.124Z,11.55
2022-10-27T04:57:38.017Z,11.50
2022-10-27T05:00:05.498Z,11.45
2022-10-27T05:02:34.705Z,11.39
2022-10-27T05:05:04.937Z,11.32
2022-10-27T05:07:31.593Z,11.24
2022-10-27T05:09:58.166Z,11.16
2022-10-27T05:12:24.847Z,11.06
2022-10-27T05:14:51.770Z,10.96
2022-10-27T05:17:19.665Z,10.90
2022-10-27T05:19:46.729Z,10.88
2022-10-27T05:22:13.426Z,10.84
2022-10-27T05:24:40.214Z,10.80
2022-10-27T05:27:06.891Z,10.79
2022-10-27T05:29:33.719Z,10.78
2022-10-27T05:32:00.498Z,10.80
2022-10-27T05:34:27.208Z,10.81
2022-10-27T05:36:54.083Z,10.79
2022-10-27T05:39:20.759Z,10.78
2022-10-27T05:41:47.675Z,10.81
2022-10-27T05:44:14.390Z,10.84
2022-10-27T05:46:41.220Z,10.91
2022-10-27T05:49:07.978Z,10.99
2022-10-27T05:51:34.877Z,11.07
2022-10-27T05:54:01.933Z,11.11
2022-10-27T05:56:29.069Z,11.16
2022-10-27T05:58:55.757Z,11.19
2022-10-27T06:01:22.566Z,11.22
2022-10-27T06:03:49.511Z,11.22
2022-10-27T06:06:16.452Z,11.19
2022-10-27T06:08:43.121Z,11.15
2022-10-27T06:11:09.877Z,11.20
2022-10-27T06:13:36.498Z,11.25
2022-10-27T06:16:03.488Z,11.32
2022-10-27T06:18:30.048Z,11.35
2022-10-27T06:20:57.080Z,11.41
2022-10-27T06:23:24.523Z,11.51
2022-10-27T06:25:51.276Z,11.62
2022-10-27T06:28:17.967Z,11.75
2022-10-27T06:30:44.721Z,11.83
2022-10-27T06:33:11.501Z,11.95
2022-10-27T06:35:38.301Z,12.07
2022-10-27T06:38:05.048Z,12.17
2022-10-27T06:40:31.853Z,12.28
2022-10-27T06:43:07.532Z,12.40
2022-10-27T06:45:36.246Z,12.54
2022-10-27T06:48:06.943Z,12.66
2022-10-27T06:50:34.787Z,12.76
2022-10-27T06:53:02.490Z,12.87
2022-10-27T06:55:29.618Z,13.02
2022-10-27T06:57:56.627Z,13.15
2022-10-27T07:00:24.552Z,13.32
2022-10-27T07:02:51.701Z,13.50
2022-10-27T07:05:18.966Z,13.69
2022-10-27T07:07:47.708Z,13.89
2022-10-27T07:10:15.195Z,14.05
2022-10-27T07:12:56.972Z,14.22
2022-10-27T07:15:25.613Z,14.40
2022-10-27T07:18:06.212Z,14.63
2022-10-27T07:20:34.444Z,14.80
2022-10-27T07:23:02.541Z,14.90
2022-10-27T07:25:30.653Z,14.99
2022-10-27T07:27:57.629Z,15.05
2022-10-27T07:30:27.357Z,15.07
2022-10-27T07:32:55.109Z,15.15
2022-10-27T07:35:22.593Z,15.25
2022-10-27T07:37:50.001Z,15.39
2022-10-27T07:40:18.977Z,15.53
2022-10-27T07:42:50.925Z,15.67
2022-10-27T07:45:20.034Z,15.83
2022-10-27T07:47:49.691Z,15.93
2022-10-27T07:50:18.858Z,16.01
2022-10-27T07:52:51.027Z,16.13
2022-10-27T07:55:20.895Z,16.20
2022-10-27T07:57:47.803Z,16.25
2022-10-27T08:00:17.046Z,16.33
2022-10-27T08:02:44.169Z,16.47
2022-10-27T08:05:11.050Z,16.55
2022-10-27T08:07:38.097Z,16.67
2022-10-27T08:10:05.863Z,16.73
2022-10-27T08:12:32.805Z,16.75
2022-10-27T08:15:00.035Z,16.69
2022-10-27T08:17:28.246Z,16.76
2022-10-27T08:19:54.916Z,16.78
2022-10-27T08:22:21.699Z,16.82
2022-10-27T08:24:48.464Z,16.77
2022-10-27T08:27:15.574Z,16.78
2022-10-27T08:29:42.194Z,16.82
2022-10-27T08:32:11.785Z,16.91
2022-10-27T08:34:38.385Z,16.98
2022-10-27T08:37:05.057Z,17.01
2022-10-27T08:39:31.829Z,17.06
2022-10-27T08:42:23.166Z,17.16
2022-10-27T08:44:58.902Z,17.23
2022-10-27T08:47:26.124Z,17.24
2022-10-27T08:49:57.079Z,17.23
2022-10-27T08:52:38.549Z,17.40
2022-10-27T08:55:14.310Z,17.56
2022-10-27T08:57:48.444Z,17.77
2022-10-27T09:00:15.555Z,18.02
2022-10-27T09:02:45.346Z,18.26
2022-10-27T09:05:44.889Z,18.23
2022-10-27T09:08:22.690Z,18.45
2022-10-27T09:11:00.913Z,18.54
2022-10-27T09:13:49.060Z,18.39
2022-10-27T09:16:55.299Z,18.15
2022-10-27T09:19:33.387Z,18.10
2022-10-27T09:22:03.838Z,18.06
2022-10-27T09:24:34.581Z,18.03
2022-10-27T09:27:03.183Z,18.03
2022-10-27T09:29:31.091Z,17.99
2022-10-27T09:32:26.454Z,17.97
2022-10-27T09:35:20.330Z,17.92
2022-10-27T09:37:48.242Z,17.83
2022-10-27T09:40:18.704Z,17.83
2022-10-27T09:42:49.405Z,17.82
2022-10-27T09:45:25.666Z,17.85
2022-10-27T09:47:57.549Z,17.81
2022-10-27T09:50:36.292Z,17.85
2022-10-27T09:53:04.060Z,17.89
2022-10-27T09:55:56.852Z,17.87
2022-10-27T09:58:23.648Z,17.94
2022-10-27T10:01:01.557Z,18.01
2022-10-27T10:03:28.592Z,18.01
2022-10-27T10:06:04.934Z,17.99
2022-10-27T10:08:35.380Z,18.08
2022-10-27T10:11:18.606Z,18.15
2022-10-27T10:14:00.332Z,18.26
2022-10-27T10:16:28.552Z,18.32
2022-10-27T10:19:03.690Z,18.37
2022-10-27T10:21:49.299Z,18.43
2022-10-27T10:24:22.102Z,18.46
2022-10-27T10:26:53.451Z,18.49
2022-10-27T10:29:30.143Z,18.49
2022-10-27T10:32:07.848Z,18.48
2022-10-27T10:34:35.129Z,18.50
2022-10-27T10:37:02.938Z,18.45
2022-10-27T10:39:36.197Z,18.42
2022-10-27T10:42:09.206Z,18.35
2022-10-27T10:44:37.030Z,18.36
2022-10-27T10:47:04.680Z,18.45
2022-10-27T10:49:41.071Z,18.54
2022-10-27T10:52:18.716Z,18.64
2022-10-27T10:54:46.841Z,18.68
2022-10-27T10:57:27.920Z,18.71
2022-10-27T10:59:58.084Z,18.76
2022-10-27T11:02:32.703Z,18.87
2022-10-27T11:05:18.454Z,18.91
2022-10-27T11:07:47.032Z,18.88
2022-10-27T11:10:24.959Z,18.79
2022-10-27T11:13:33.838Z,18.85
2022-10-27T11:16:04.189Z,18.94
2022-10-27T11:18:49.780Z,19.03
2022-10-27T11:21:28.686Z,19.08
2022-10-27T11:24:13.771Z,19.09
2022-10-27T11:26:52.268Z,19.15
2022-10-27T11:29:42.113Z,19.07
2022-10-27T11:32:22.076Z,19.01
2022-10-27T11:35:37.917Z,19.07
2022-10-27T11:38:15.615Z,19.15
2022-10-27T11:40:46.191Z,19.20
2022-10-27T11:43:43.229Z,19.25
2022-10-27T11:46:19.974Z,19.32
2022-10-27T11:48:55.678Z,19.21
2022-10-27T11:51:34.951Z,19.19
2022-10-27T11:54:02.462Z,19.24
2022-10-27T11:57:11.606Z,19.22
2022-10-27T12:00:03.634Z,19.33
2022-10-27T12:02:57.553Z,19.44
2022-10-27T12:05:34.566Z,19.40
2022-10-27T12:08:01.152Z,19.43
2022-10-27T12:10:40.638Z,19.40
2022-10-27T12:13:29.588Z,19.50
2022-10-27T12:15:59.316Z,19.59
2022-10-27T12:18:46.115Z,19.69
2022-10-27T12:21:35.844Z,19.68
2022-10-27T12:24:48.948Z,19.66
2022-10-27T12:27:21.906Z,19.66
2022-10-27T12:29:57.166Z,19.69
2022-10-27T12:32:36.264Z,19.76
2022-10-27T12:35:12.822Z,19.74
2022-10-27T12:38:02.688Z,19.65
2022-10-27T12:40:44.695Z,19.61
2022-10-27T12:43:37.654Z,19.63
2022-10-27T12:46:25.856Z,19.61
2022-10-27T12:49:10.469Z,19.63
2022-10-27T12:52:01.714Z,19.67
2022-10-27T12:54:35.552Z,19.69
2022-10-27T12:57:35.888Z,19.66
2022-10-27T13:00:07.763Z,19.41
2022-10-27T13:03:09.741Z,19.30
2022-10-27T13:05:47.115Z,19.25
2022-10-27T13:08:31.794Z,19.19
2022-10-27T13:11:04.288Z,19.21
2022-10-27T13:13:58.932Z,19.15
2022-10-27T13:16:33.877Z,19.16
2022-10-27T13:19:31.434Z,19.09
2022-10-27T13:22:30.643Z,19.03
2022-10-27T13:25:15.790Z,19.02
2022-10-27T13:27:51.713Z,19.02
2022-10-27T13:30:23.677Z,19.02
2022-10-27T13:32:54.242Z,18.95
2022-10-27T13:35:28.276Z,18.95
2022-10-27T13:37:55.775Z,18.97
2022-10-27T13:40:22.629Z,18.91
2022-10-27T13:43:12.035Z,18.90
2022-10-27T13:45:48.549Z,18.88
2022-10-27T13:48:15.717Z,18.86
2022-10-27T13:50:46.717Z,18.75
2022-10-27T13:53:14.471Z,18.78
2022-10-27T13:55:43.038Z,18.77
2022-10-27T13:58:18.877Z,18.74
2022-10-27T14:01:27.608Z,18.72
2022-10-27T14:04:21.123Z,18.80
2022-10-27T14:06:56.978Z,18.78
2022-10-27T14:09:35.101Z,18.74
2022-10-27T14:12:20.517Z,18.67
2022-10-27T14:14:51.405Z,18.58
2022-10-27T14:17:22.960Z,18.50
2022-10-27T14:19:57.640Z,18.38
2022-10-27T14:22:30.016Z,18.21
2022-10-27T14:25:01.968Z,18.04
2022-10-27T14:27:28.729Z,17.88
2022-10-27T14:30:13.363Z,17.73
2022-10-27T14:32:40.105Z,17.57
2022-10-27T14:35:25.731Z,17.44
2022-10-27T14:37:56.887Z,17.30
2022-10-27T14:40:36.059Z,17.17
2022-10-27T14:43:07.038Z,17.05
2022-10-27T14:45:33.739Z,16.89
2022-10-27T14:48:04.147Z,16.79
2022-10-27T14:50:33.928Z,16.71
2022-10-27T14:53:02.670Z,16.60
2022-10-27T14:55:34.604Z,16.47
2022-10-27T14:58:01.773Z,16.36
2022-10-27T15:00:30.351Z,16.29
2022-10-27T15:03:00.149Z,16.22
2022-10-27T15:05:35.382Z,16.16
2022-10-27T15:08:05.014Z,16.07
2022-10-27T15:10:35.668Z,16.00
2022-10-27T15:13:04.261Z,15.92
2022-10-27T15:15:33.019Z,15.82
2022-10-27T15:18:04.758Z,15.73
2022-10-27T15:20:32.972Z,15.66
2022-10-27T15:23:00.572Z,15.57
2022-10-27T15:25:30.308Z,15.50
2022-10-27T15:28:01.337Z,15.43
2022-10-27T15:30:28.916Z,15.35
2022-10-27T15:32:56.895Z,15.26
2022-10-27T15:35:34.817Z,15.18
2022-10-27T15:38:24.716Z,15.11
2022-10-27T15:40:54.335Z,15.03
2022-10-27T15:43:26.999Z,14.97
2022-10-27T15:46:30.773Z,14.93
2022-10-27T15:49:01.171Z,14.89
2022-10-27T15:51:49.283Z,14.86
2022-10-27T15:54:22.412Z,14.85
2022-10-27T15:56:53.950Z,14.86
2022-10-27T15:59:27.345Z,14.88
2022-10-27T16:02:20.931Z,14.90
2022-10-27T16:04:50.032Z,14.91
2022-10-27T16:07:28.182Z,14.91
2022-10-27T16:09:54.797Z,14.91
2022-10-27T16:12:36.380Z,14.86
2022-10-27T16:15:06.537Z,14.79
2022-10-27T16:17:42.088Z,14.70
2022-10-27T16:20:18.331Z,14.60
2022-10-27T16:22:45.968Z,14.52
2022-10-27T16:25:18.197Z,14.51
2022-10-27T16:27:45.500Z,14.48
2022-10-27T16:30:18.068Z,14.42
2022-10-27T16:32:46.529Z,14.43
2022-10-27T16:35:14.365Z,14.38
2022-10-27T16:37:41.685Z,14.33
2022-10-27T16:40:17.892Z,14.28
2022-10-27T16:42:52.881Z,14.21
2022-10-27T16:45:20.568Z,14.19
2022-10-27T16:47:51.423Z,14.17
2022-10-27T16:50:19.992Z,14.16
2022-10-27T16:52:54.144Z,14.10
2022-10-27T16:55:21.678Z,14.04
2022-10-27T16:57:49.799Z,13.94
2022-10-27T17:00:17.437Z,13.89
2022-10-27T17:02:44.165Z,13.88
2022-10-27T17:05:11.101Z,13.84
2022-10-27T17:07:38.456Z,13.79
2022-10-27T17:10:05.625Z,13.72
2022-10-27T17:12:32.374Z,13.59
2022-10-27T17:14:58.987Z,13.46
2022-10-27T17:17:25.765Z,13.37
2022-10-27T17:19:52.541Z,13.26
2022-10-27T17:22:19.103Z,13.18
2022-10-27T17:24:45.647Z,13.11
2022-10-27T17:27:12.357Z,13.03
2022-10-27T17:29:40.792Z,12.96
2022-10-27T17:32:07.502Z,12.85
2022-10-27T17:34:34.101Z,12.79
2022-10-27T17:37:00.652Z,12.70
2022-10-27T17:39:27.312Z,12.63
2022-10-27T17:41:54.138Z,12.54
2022-10-27T17:44:20.683Z,12.44
2022-10-27T17:46:47.350Z,12.36
2022-10-27T17:49:13.994Z,12.29
2022-10-27T17:51:40.927Z,12.18
2022-10-27T17:54:08.850Z,12.05
2022-10-27T17:56:36.528Z,11.89
2022-10-27T17:59:06.156Z,11.82
2022-10-27T18:01:33.865Z,11.76
2022-10-27T18:04:06.205Z,11.71
2022-10-27T18:06:33.848Z,11.63
2022-10-27T18:09:01.699Z,11.55
2022-10-27T18:11:30.471Z,11.54
2022-10-27T18:14:03.852Z,11.48
2022-10-27T18:16:35.249Z,11.43
2022-10-27T18:19:03.083Z,11.37
2022-10-27T18:21:32.258Z,11.34
2022-10-27T18:24:00.285Z,11.29
2022-10-27T18:26:33.587Z,11.23
2022-10-27T18:29:00.311Z,11.17
2022-10-27T18:31:32.951Z,11.11
2022-10-27T18:33:59.560Z,11.08
2022-10-27T18:36:26.483Z,11.06
2022-10-27T18:39:00.612Z,11.02
2022-10-27T18:41:30.600Z,10.97
2022-10-27T18:43:57.160Z,10.90
2022-10-27T18:46:24.575Z,10.84
2022-10-27T18:48:58.288Z,10.82
2022-10-27T18:51:27.247Z,10.77
2022-10-27T18:53:55.917Z,10.65
2022-10-27T18:56:22.953Z,10.63
2022-10-27T18:58:54.050Z,10.57
2022-10-27T19:01:22.176Z,10.51
2022-10-27T19:03:53.202Z,10.47
2022-10-27T19:06:20.176Z,10.44
2022-10-27T19:08:47.146Z,10.43
2022-10-27T19:11:15.448Z,10.43
2022-10-27T19:13:44.742Z,10.43
2022-10-27T19:16:14.055Z,10.40
2022-10-27T19:18:40.764Z,10.38
2022-10-27T19:21:11.997Z,10.35
2022-10-27T19:23:40.280Z,10.30
2022-10-27T19:26:12.949Z,10.20
2022-10-27T19:28:40.930Z,10.19
2022-10-27T19:31:14.508Z,10.12
2022-10-27T19:33:44.602Z,10.07
2022-10-27T19:36:26.685Z,10.04
2022-10-27T19:38:54.129Z,9.98
2022-10-27T19:41:24.031Z,9.91
2022-10-27T19:43:52.931Z,9.87
2022-10-27T19:46:20.346Z,9.79
2022-10-27T19:48:54.965Z,9.76
2022-10-27T19:51:24.126Z,9.66
2022-10-27T19:53:52.588Z,9.61
2022-10-27T19:56:19.197Z,9.50
2022-10-27T19:58:57.188Z,9.42
2022-10-27T20:01:31.408Z,9.34
2022-10-27T20:04:06.509Z,9.30
2022-10-27T20:06:33.376Z,9.29
2022-10-27T20:09:00.773Z,9.31
2022-10-27T20:11:29.898Z,9.29
2022-10-27T20:13:57.234Z,9.27
2022-10-27T20:16:27.122Z,9.25
2022-10-27T20:18:55.592Z,9.21
2022-10-27T20:21:22.189Z,9.19
2022-10-27T20:23:48.729Z,9.16
2022-10-27T20:26:28.971Z,9.07
2022-10-27T20:28:58.622Z,9.06
2022-10-27T20:31:25.708Z,9.08
2022-10-27T20:33:52.636Z,9.07
2022-10-27T20:36:19.705Z,9.03
2022-10-27T20:38:46.442Z,8.94
2022-10-27T20:41:18.125Z,8.90
2022-10-27T20:43:45.301Z,8.89
2022-10-27T20:46:14.039Z,8.87
2022-10-27T20:48:40.889Z,8.82
2022-10-27T20:51:11.217Z,8.79
2022-10-27T20:53:39.045Z,8.72
2022-10-27T20:56:07.102Z,8.70
2022-10-27T20:58:33.746Z,8.71
2022-10-27T21:01:22.549Z,8.71
2022-10-27T21:03:52.230Z,8.68
2022-10-27T21:06:19.277Z,8.64
2022-10-27T21:08:45.935Z,8.62
2022-10-27T21:11:12.485Z,8.52
2022-10-27T21:13:39.080Z,8.53
2022-10-27T21:16:07.028Z,8.46
2022-10-27T21:18:33.699Z,8.41
2022-10-27T21:21:09.750Z,8.35
2022-10-27T21:23:36.341Z,8.29
2022-10-27T21:26:03.163Z,8.29
2022-10-27T21:28:29.805Z,8.30
2022-10-27T21:30:56.437Z,8.29
2022-10-27T21:33:26.543Z,8.30
2022-10-27T21:35:53.146Z,8.30
2022-10-27T21:38:19.669Z,8.32
2022-10-27T21:40:46.249Z,8.38
2022-10-27T21:43:12.792Z,8.37
2022-10-27T21:45:39.309Z,8.37
2022-10-27T21:48:05.920Z,8.40
2022-10-27T21:50:32.606Z,8.41
2022-10-27T21:52:59.243Z,8.41
2022-10-27T21:55:25.743Z,8.42
2022-10-27T21:57:52.614Z,8.43
2022-10-27T22:00:19.405Z,8.44
2022-10-27T22:02:45.990Z,8.41
2022-10-27T22:05:12.553Z,8.42
2022-10-27T22:07:39.073Z,8.41
2022-10-27T22:10:06.342Z,8.41
2022-10-27T22:12:32.938Z,8.41
2022-10-27T22:14:59.635Z,8.38
2022-10-27T22:17:26.364Z,8.32
2022-10-27T22:19:52.950Z,8.26
2022-10-27T22:22:19.467Z,8.26
2022-10-27T22:24:46.048Z,8.24
2022-10-27T22:27:14.561Z,8.21
2022-10-27T22:29:43.909Z,8.20
2022-10-27T22:32:10.707Z,8.19
2022-10-27T22:34:37.217Z,8.20
2022-10-27T22:37:03.766Z,8.17
2022-10-27T22:39:30.265Z,8.11
2022-10-27T22:41:56.900Z,8.05
2022-10-27T22:44:23.648Z,8.01
2022-10-27T22:46:50.151Z,7.99
2022-10-27T22:49:16.781Z,7.99
2022-10-27T22:51:43.337Z,7.96
2022-10-27T22:54:09.920Z,7.93
2022-10-27T22:56:36.492Z,7.92
2022-10-27T22:59:07.664Z,7.92
2022-10-27T23:01:37.215Z,7.92
2022-10-27T23:04:05.494Z,7.89
2022-10-27T23:06:35.497Z,7.88
2022-10-27T23:09:16.541Z,7.84
2022-10-27T23:11:44.119Z,7.80
2022-10-27T23:14:12.784Z,7.77
2022-10-27T23:16:40.100Z,7.77
2022-10-27T23:19:07.244Z,7.76
2022-10-27T23:21:34.964Z,7.72
2022-10-27T23:24:02.909Z,7.70
2022-10-27T23:26:31.638Z,7.67
2022-10-27T23:29:00.763Z,7.66
2022-10-27T23:31:28.929Z,7.66
2022-10-27T23:34:01.193Z,7.66
2022-10-27T23:36:30.381Z,7.69
2022-10-27T23:38:57.949Z,7.66
2022-10-27T23:41:24.990Z,7.63
2022-10-27T23:43:53.177Z,7.60
2022-10-27T23:46:20.813Z,7.55
2022-10-27T23:48:47.684Z,7.46
2022-10-27T23:51:15.164Z,7.41
2022-10-27T23:53:41.820Z,7.36
2022-10-27T23:56:10.367Z,7.27
2022-10-27T23:58:39.315Z,7.23
